Bude — V7XL2 — position and weather

sailwx.info

Track history (hours):
 
Tides and Currents Weather Stations Pressure Air Temp Water Temp Dewpoint Dewpoint Depression Visibility Wind Speed Wind Dir Waves Ship Positions

Bude

Last reported at 2015-May-23 16:09 UTC. Time now 2015-May-24 15:07 UTC.
Position N 35°55' W 005°15'.

Length 119 m; draft 5.9 m.

Type: Cargo ship. MMSI: 538004506.

Date/timePositionNaut miles runAvg speedWind from/ knotsBaromVisibWave heightAir tempDewpointWater temp
2015-May-23 16:09N 35°55' W 005°15'3 5.0
2015-May-23 15:33N 35°54' W 005°18'0 0.0
2015-May-23 14:33N 35°54' W 005°18'0 0.0
2015-May-23 13:32N 35°54' W 005°18'0 0.0
2015-May-23 12:32N 35°54' W 005°18'0 0.2
2015-May-23 11:33N 35°54' W 005°19'1 1.1
2015-May-23 10:33N 35°55' W 005°19'6 6.0
2015-May-23 09:33N 35°57' W 005°26'  
2015-May-15 02:15N 36°00' W 005°24'4 6.6
2015-May-15 01:33N 36°01' W 005°19'107 6.7
2015-May-14 09:28N 36°19' W 003°08'910.0
2015-May-14 08:33N 36°20' W 002°56'1310.4
2015-May-14 07:20N 36°22' W 002°41'810.3
2015-May-14 06:33N 36°23' W 002°31'1010.4
2015-May-14 05:34N 36°25' W 002°18'1110.5
2015-May-14 04:33N 36°27' W 002°05'1010.2
2015-May-14 03:33N 36°29' W 001°53'1010.1
2015-May-14 02:33N 36°31' W 001°40'1010.1
2015-May-14 01:33N 36°33' W 001°28'1010.2
2015-May-14 00:34N 36°36' W 001°16'1310.3
2015-May-13 23:18N 36°40' W 001°01'810.7
2015-May-13 22:31N 36°42' W 000°51'1010.3
2015-May-13 21:32N 36°48' W 000°40'1010.5
2015-May-13 20:33N 36°54' W 000°30'1110.6
2015-May-13 19:33N 36°56' W 000°17'1010.4
2015-May-13 18:33N 36°59' W 000°04'1110.7
2015-May-13 17:33N 37°03' E 000°08'1010.4
2015-May-13 16:34N 37°06' E 000°21'  
Track history (hours):
 
Tides and Currents Weather Stations Pressure Air Temp Water Temp Dewpoint Dewpoint Depression Visibility Wind Speed Wind Dir Waves Ship Positions

Bude

Last reported at 2015-May-23 16:09 UTC. Time now 2015-May-24 15:07 UTC.
Position N 35°55' W 005°15'.

Length 119 m; draft 5.9 m.

Type: Cargo ship. MMSI: 538004506.

Date/timePositionNaut miles runAvg speedWind from/ knotsBaromVisibWave heightAir tempDewpointWater temp
2015-May-23 16:09N 35°55' W 005°15'3 5.0
2015-May-23 15:33N 35°54' W 005°18'0 0.0
2015-May-23 14:33N 35°54' W 005°18'0 0.0
2015-May-23 13:32N 35°54' W 005°18'0 0.0
2015-May-23 12:32N 35°54' W 005°18'0 0.2
2015-May-23 11:33N 35°54' W 005°19'1 1.1
2015-May-23 10:33N 35°55' W 005°19'6 6.0
2015-May-23 09:33N 35°57' W 005°26'  
2015-May-15 02:15N 36°00' W 005°24'4 6.6
2015-May-15 01:33N 36°01' W 005°19'107 6.7
2015-May-14 09:28N 36°19' W 003°08'910.0
2015-May-14 08:33N 36°20' W 002°56'1310.4
2015-May-14 07:20N 36°22' W 002°41'810.3
2015-May-14 06:33N 36°23' W 002°31'1010.4
2015-May-14 05:34N 36°25' W 002°18'1110.5
2015-May-14 04:33N 36°27' W 002°05'1010.2
2015-May-14 03:33N 36°29' W 001°53'1010.1
2015-May-14 02:33N 36°31' W 001°40'1010.1
2015-May-14 01:33N 36°33' W 001°28'1010.2
2015-May-14 00:34N 36°36' W 001°16'1310.3
2015-May-13 23:18N 36°40' W 001°01'810.7
2015-May-13 22:31N 36°42' W 000°51'1010.3
2015-May-13 21:32N 36°48' W 000°40'1010.5
2015-May-13 20:33N 36°54' W 000°30'1110.6
2015-May-13 19:33N 36°56' W 000°17'1010.4
2015-May-13 18:33N 36°59' W 000°04'1110.7
2015-May-13 17:33N 37°03' E 000°08'1010.4
2015-May-13 16:34N 37°06' E 000°21'  

Dump ship's entire track history